Time;durP1;ratioP1;P1;durP2;ratioP2;P2;SDS_P1;SDS_P2;PMS_P1;PMS_P2;Temp;Humidity;BMP_temperature;BMP_pressure;BME280_temperature;BME280_humidity;BME280_pressure;Samples;Min_cycle;Max_cycle;Signal;HPM_P1;HPM_P2
2023/12/28 00:00:32;;;;;;;9.80;4.00;;;5.50;99.90;;;;;;5047792;28;20436;-68
2023/12/28 00:03:00;;;;;;;15.70;3.60;;;5.50;99.90;;;;;;5040230;28;21606;-68
2023/12/28 00:05:28;;;;;;;9.00;3.17;;;5.60;99.90;;;;;;5042559;28;20443;-70
2023/12/28 00:07:57;;;;;;;9.27;3.10;;;5.80;99.90;;;;;;5045966;28;20465;-69
2023/12/28 00:10:28;;;;;;;8.80;3.00;;;5.70;99.90;;;;;;5043618;28;21131;-71
2023/12/28 00:12:56;;;;;;;9.73;2.73;;;5.70;99.90;;;;;;5040999;28;20462;-67
2023/12/28 00:15:24;;;;;;;7.80;2.60;;;5.80;99.90;;;;;;5051194;28;20444;-68
2023/12/28 00:17:52;;;;;;;9.17;2.67;;;5.80;99.90;;;;;;5041488;28;20488;-68
2023/12/28 00:20:20;;;;;;;7.50;1.93;;;6.00;99.90;;;;;;5046129;28;20551;-69
2023/12/28 00:22:48;;;;;;;7.50;2.20;;;6.10;99.90;;;;;;5050931;28;20438;-67
2023/12/28 00:25:16;;;;;;;7.87;2.27;;;6.20;99.90;;;;;;5042547;28;20442;-69
2023/12/28 00:27:46;;;;;;;13.40;2.80;;;6.20;99.90;;;;;;5039632;28;21185;-68
2023/12/28 00:30:16;;;;;;;9.20;2.37;;;6.20;99.90;;;;;;5040742;28;20465;-70
2023/12/28 00:32:45;;;;;;;7.53;2.30;;;6.20;99.90;;;;;;5038854;28;20464;-67
2023/12/28 00:35:14;;;;;;;10.13;2.60;;;6.30;99.90;;;;;;5039975;28;20977;-68
2023/12/28 00:37:42;;;;;;;7.97;2.50;;;6.30;99.90;;;;;;5037723;28;21157;-71
2023/12/28 00:40:11;;;;;;;7.70;2.17;;;6.40;99.90;;;;;;5040685;28;20459;-71
2023/12/28 00:42:40;;;;;;;7.23;2.30;;;6.40;99.90;;;;;;5039094;28;20496;-68
2023/12/28 00:45:10;;;;;;;8.30;2.30;;;6.40;99.90;;;;;;5042678;28;20498;-69
2023/12/28 00:47:38;;;;;;;8.93;2.80;;;6.30;99.90;;;;;;5040531;28;20436;-69
2023/12/28 00:50:07;;;;;;;10.43;2.60;;;6.20;99.90;;;;;;5048109;28;20460;-68
2023/12/28 00:52:35;;;;;;;9.10;2.27;;;6.20;99.90;;;;;;5049558;28;20523;-67
2023/12/28 00:55:04;;;;;;;9.10;1.90;;;6.10;99.90;;;;;;5048499;28;20918;-68
2023/12/28 00:57:33;;;;;;;7.77;1.90;;;6.10;99.90;;;;;;5049503;28;20500;-67
2023/12/28 01:00:02;;;;;;;7.70;1.90;;;6.10;99.90;;;;;;5048849;28;20574;-68
2023/12/28 01:02:31;;;;;;;7.70;1.90;;;6.40;99.90;;;;;;5049003;28;20924;-67
2023/12/28 01:04:59;;;;;;;8.07;1.70;;;6.60;99.20;;;;;;5047206;28;20448;-69
2023/12/28 01:07:27;;;;;;;8.53;1.87;;;6.90;99.00;;;;;;5048875;28;20550;-68
2023/12/28 01:09:55;;;;;;;7.30;1.70;;;7.00;98.10;;;;;;5046660;28;20448;-67
2023/12/28 01:12:23;;;;;;;6.90;1.67;;;7.00;98.50;;;;;;5049151;28;20436;-67
2023/12/28 01:14:51;;;;;;;7.00;1.50;;;6.90;98.10;;;;;;5048255;28;20571;-68
2023/12/28 01:17:19;;;;;;;8.00;1.80;;;6.90;98.40;;;;;;5048883;28;20556;-68
2023/12/28 01:19:49;;;;;;;7.73;2.00;;;6.90;99.00;;;;;;5048526;28;21139;-68
2023/12/28 01:22:17;;;;;;;7.40;1.80;;;6.80;98.90;;;;;;5048551;28;20820;-71
2023/12/28 01:24:49;;;;;;;7.67;1.87;;;6.80;99.20;;;;;;5047225;28;20513;-70
2023/12/28 01:27:17;;;;;;;8.63;2.30;;;6.60;99.90;;;;;;5042731;28;20572;-70
2023/12/28 01:29:45;;;;;;;9.20;3.20;;;6.50;99.50;;;;;;5039987;28;21025;-68
2023/12/28 01:32:13;;;;;;;7.80;2.33;;;6.50;99.90;;;;;;5048654;28;21047;-69
2023/12/28 01:34:40;;;;;;;7.97;2.63;;;6.50;99.40;;;;;;5048051;28;20440;-70
2023/12/28 01:37:10;;;;;;;8.87;2.80;;;6.70;99.20;;;;;;5048618;28;21045;-68
2023/12/28 01:39:38;;;;;;;7.83;2.27;;;6.70;99.50;;;;;;5048397;28;20490;-68
2023/12/28 01:42:06;;;;;;;9.60;3.00;;;6.70;99.20;;;;;;5048158;28;20477;-69
2023/12/28 01:44:34;;;;;;;8.70;2.73;;;6.80;99.30;;;;;;5048277;28;20857;-68
2023/12/28 01:47:02;;;;;;;7.70;2.40;;;6.70;98.90;;;;;;5047849;28;20456;-67
2023/12/28 01:49:31;;;;;;;9.23;2.80;;;6.70;99.40;;;;;;5048517;28;20531;-68
2023/12/28 01:52:01;;;;;;;7.80;2.57;;;6.60;99.60;;;;;;5048062;28;20444;-67
2023/12/28 01:54:31;;;;;;;8.07;2.60;;;6.50;99.50;;;;;;5048225;28;20450;-68
2023/12/28 01:57:02;;;;;;;9.07;2.83;;;6.60;99.20;;;;;;5048080;28;20451;-68
2023/12/28 01:59:31;;;;;;;10.00;3.77;;;6.60;99.90;;;;;;5047652;28;20503;-69
2023/12/28 02:01:59;;;;;;;8.37;3.10;;;6.60;99.80;;;;;;5048130;28;20470;-67
2023/12/28 02:04:28;;;;;;;9.70;3.20;;;6.60;99.40;;;;;;5047978;28;20479;-69
2023/12/28 02:06:58;;;;;;;9.83;3.43;;;6.60;99.20;;;;;;5047894;28;20540;-69
2023/12/28 02:09:26;;;;;;;10.83;3.33;;;6.60;99.50;;;;;;5047937;28;20467;-69
2023/12/28 02:11:56;;;;;;;9.10;3.17;;;6.60;99.30;;;;;;5047839;28;21036;-67
2023/12/28 02:14:24;;;;;;;9.70;3.27;;;6.60;99.40;;;;;;5047547;28;20463;-66
2023/12/28 02:17:01;;;;;;;9.20;3.37;;;6.60;99.20;;;;;;5048134;28;20895;-68
2023/12/28 02:19:40;;;;;;;8.93;2.80;;;6.60;99.20;;;;;;5047556;28;20525;-69
2023/12/28 02:22:09;;;;;;;9.10;2.93;;;6.50;99.80;;;;;;5047751;28;20428;-67
2023/12/28 02:25:12;;;;;;;8.90;2.97;;;6.50;99.40;;;;;;5047523;28;20448;-68
2023/12/28 02:27:43;;;;;;;11.10;3.30;;;6.50;98.90;;;;;;5042247;28;20970;-69
2023/12/28 02:30:12;;;;;;;9.17;3.37;;;6.60;98.70;;;;;;5047311;28;20517;-68
2023/12/28 02:32:48;;;;;;;9.83;2.40;;;6.60;98.60;;;;;;5047162;28;20516;-69
2023/12/28 02:35:21;;;;;;;7.43;2.17;;;6.70;98.30;;;;;;5046716;28;20451;-69
2023/12/28 02:37:54;;;;;;;9.07;2.83;;;6.70;98.00;;;;;;5047154;28;20477;-69
2023/12/28 02:40:24;;;;;;;9.37;3.03;;;6.80;97.90;;;;;;5047153;28;20640;-68
2023/12/28 02:42:54;;;;;;;8.53;2.80;;;6.80;97.60;;;;;;5047019;28;20455;-67
2023/12/28 02:45:22;;;;;;;9.17;3.40;;;7.00;97.20;;;;;;5046514;28;20782;-67
2023/12/28 02:47:50;;;;;;;8.50;3.20;;;7.00;97.20;;;;;;5046957;28;20476;-68
2023/12/28 02:50:18;;;;;;;9.00;3.13;;;7.00;97.60;;;;;;5046671;28;20450;-68
2023/12/28 02:52:46;;;;;;;9.50;3.13;;;6.90;97.80;;;;;;5046750;28;20529;-70
2023/12/28 02:55:14;;;;;;;9.30;3.30;;;6.80;98.00;;;;;;5046054;28;21000;-68
2023/12/28 02:57:44;;;;;;;8.63;2.87;;;6.70;98.20;;;;;;5046352;28;20447;-67
2023/12/28 03:00:14;;;;;;;8.30;2.97;;;6.70;98.20;;;;;;5046374;28;20474;-68
2023/12/28 03:02:45;;;;;;;9.93;3.37;;;6.60;98.20;;;;;;5046255;28;20860;-69
2023/12/28 03:05:13;;;;;;;8.80;3.23;;;6.60;98.50;;;;;;5045897;28;20942;-69
2023/12/28 03:07:42;;;;;;;13.37;3.67;;;6.60;99.00;;;;;;5046402;28;20866;-69
2023/12/28 03:10:11;;;;;;;10.00;2.97;;;6.50;98.90;;;;;;5046254;28;20968;-68
2023/12/28 03:12:42;;;;;;;9.60;3.60;;;6.50;98.70;;;;;;5046292;28;20460;-70
2023/12/28 03:15:10;;;;;;;9.33;3.30;;;6.60;98.80;;;;;;5045888;28;20452;-69
2023/12/28 03:17:39;;;;;;;8.10;2.87;;;6.50;99.10;;;;;;5046280;28;20456;-69
2023/12/28 03:20:09;;;;;;;9.33;3.60;;;6.50;98.70;;;;;;5045707;28;20961;-70
2023/12/28 03:22:37;;;;;;;9.57;3.20;;;6.40;98.80;;;;;;5046081;28;20525;-68
2023/12/28 03:25:06;;;;;;;9.00;3.50;;;6.40;99.10;;;;;;5045397;28;20455;-69
2023/12/28 03:27:34;;;;;;;11.83;3.10;;;6.40;99.30;;;;;;5045644;28;21164;-68
2023/12/28 03:30:01;;;;;;;10.27;4.57;;;6.30;99.40;;;;;;5045441;28;20531;-71
2023/12/28 03:32:29;;;;;;;9.60;3.70;;;6.40;99.50;;;;;;5045904;28;20455;-71
2023/12/28 03:34:59;;;;;;;8.60;3.40;;;6.30;99.20;;;;;;5045562;28;21242;-71
2023/12/28 03:37:27;;;;;;;10.67;3.70;;;6.40;99.10;;;;;;5045871;28;20551;-68
2023/12/28 03:39:54;;;;;;;10.17;3.00;;;6.40;99.00;;;;;;5046119;28;20581;-68
2023/12/28 03:42:23;;;;;;;9.43;3.00;;;6.40;98.70;;;;;;5037839;28;20459;-66
2023/12/28 03:44:50;;;;;;;11.73;3.27;;;6.50;98.80;;;;;;5045265;28;20448;-68
2023/12/28 03:47:18;;;;;;;8.20;2.73;;;6.60;98.50;;;;;;5046094;28;20447;-68
2023/12/28 03:49:46;;;;;;;9.43;3.37;;;6.60;98.90;;;;;;5045877;28;21127;-67
2023/12/28 03:52:16;;;;;;;9.47;3.40;;;6.70;98.70;;;;;;5045286;28;20530;-66
2023/12/28 03:54:44;;;;;;;9.60;3.67;;;6.80;98.70;;;;;;5045287;28;20443;-65
2023/12/28 03:57:11;;;;;;;9.50;3.27;;;6.70;99.40;;;;;;5045381;28;21185;-67
2023/12/28 03:59:40;;;;;;;8.93;3.93;;;6.60;99.30;;;;;;5045255;28;20853;-68
2023/12/28 04:02:08;;;;;;;8.80;3.30;;;6.50;99.60;;;;;;5045436;28;20455;-66
2023/12/28 04:04:36;;;;;;;13.43;4.17;;;6.40;99.70;;;;;;5045567;28;21173;-67
2023/12/28 04:07:07;;;;;;;9.70;3.80;;;6.20;99.90;;;;;;5045328;28;20446;-66
2023/12/28 04:09:36;;;;;;;9.90;3.80;;;6.10;99.90;;;;;;5043449;28;20463;-66
2023/12/28 04:12:05;;;;;;;10.47;3.80;;;6.10;99.90;;;;;;5045432;28;20464;-67
2023/12/28 04:14:33;;;;;;;8.53;3.17;;;6.10;99.90;;;;;;5045145;28;20498;-68
2023/12/28 04:17:00;;;;;;;9.83;3.70;;;6.00;99.90;;;;;;5044925;28;20448;-68
2023/12/28 04:19:28;;;;;;;10.20;3.97;;;6.00;99.90;;;;;;5045695;28;20552;-67
2023/12/28 04:21:56;;;;;;;8.80;3.20;;;5.90;99.90;;;;;;5045478;28;20488;-67
2023/12/28 04:24:24;;;;;;;9.30;2.73;;;6.00;99.90;;;;;;5045629;28;20542;-70
2023/12/28 04:26:54;;;;;;;8.97;2.87;;;6.00;99.90;;;;;;5045119;28;20910;-69
2023/12/28 04:29:22;;;;;;;10.77;3.30;;;6.00;99.90;;;;;;5045475;28;20474;-70
2023/12/28 04:31:50;;;;;;;9.33;3.37;;;6.00;99.90;;;;;;5045439;28;20453;-68
2023/12/28 04:34:20;;;;;;;10.30;3.20;;;6.00;99.90;;;;;;5045576;28;20447;-68
2023/12/28 04:36:48;;;;;;;9.00;3.00;;;6.00;99.90;;;;;;5045139;28;20535;-66
2023/12/28 04:39:17;;;;;;;9.30;3.37;;;6.10;99.90;;;;;;5045234;28;20481;-68
2023/12/28 04:41:45;;;;;;;8.70;2.77;;;6.00;99.90;;;;;;5045728;28;21049;-68
2023/12/28 04:44:14;;;;;;;9.83;3.67;;;6.10;99.80;;;;;;5048856;28;20542;-70
2023/12/28 04:46:44;;;;;;;9.20;3.30;;;6.20;99.90;;;;;;5047674;28;20455;-69
2023/12/28 04:49:12;;;;;;;8.23;3.00;;;6.30;99.90;;;;;;5049081;28;20503;-68
2023/12/28 04:51:43;;;;;;;9.20;3.03;;;6.30;99.80;;;;;;5048813;28;20483;-67
2023/12/28 04:54:12;;;;;;;8.50;2.80;;;6.30;99.50;;;;;;5048826;28;20452;-68
2023/12/28 04:56:40;;;;;;;8.43;3.00;;;6.40;99.10;;;;;;5048541;28;20937;-67
2023/12/28 04:59:07;;;;;;;8.60;2.77;;;6.50;99.50;;;;;;5048568;28;21163;-68
2023/12/28 05:01:42;;;;;;;8.80;2.80;;;6.60;98.60;;;;;;5048887;28;20487;-67
2023/12/28 05:04:10;;;;;;;9.40;2.57;;;6.60;98.50;;;;;;5048584;28;20569;-67
2023/12/28 05:06:44;;;;;;;9.93;2.53;;;6.70;98.00;;;;;;5048057;28;20452;-68
2023/12/28 05:09:12;;;;;;;10.00;3.13;;;6.60;98.30;;;;;;5048172;28;20545;-68
2023/12/28 05:11:40;;;;;;;8.17;2.30;;;6.70;98.10;;;;;;5048413;28;20444;-68
2023/12/28 05:14:08;;;;;;;8.33;2.73;;;6.70;98.30;;;;;;5048179;28;20455;-69
2023/12/28 05:16:38;;;;;;;8.80;2.93;;;6.70;98.70;;;;;;5048074;28;20459;-68
2023/12/28 05:19:07;;;;;;;7.90;2.40;;;6.60;99.00;;;;;;5048518;28;20463;-68
2023/12/28 05:21:35;;;;;;;9.10;3.20;;;6.60;99.50;;;;;;5048229;28;20487;-69
2023/12/28 05:24:04;;;;;;;8.63;2.63;;;6.50;99.70;;;;;;5048119;28;20452;-69
2023/12/28 05:26:32;;;;;;;8.63;3.10;;;6.50;99.90;;;;;;5048171;28;20475;-66
2023/12/28 05:29:00;;;;;;;9.47;2.80;;;6.40;99.90;;;;;;5048172;28;20989;-68
2023/12/28 05:31:28;;;;;;;8.40;2.77;;;6.50;99.60;;;;;;5048161;28;20577;-70
2023/12/28 05:33:58;;;;;;;7.60;2.60;;;6.40;99.80;;;;;;5048019;28;20440;-68
2023/12/28 05:36:27;;;;;;;8.17;2.97;;;6.40;99.90;;;;;;5047895;28;20444;-69
2023/12/28 05:38:55;;;;;;;8.40;2.70;;;6.50;99.80;;;;;;5048063;28;20464;-68
2023/12/28 05:41:23;;;;;;;8.60;2.77;;;6.50;99.60;;;;;;5048084;28;20489;-66
2023/12/28 05:43:51;;;;;;;9.00;3.07;;;6.50;99.80;;;;;;5048352;28;20440;-68
2023/12/28 05:46:19;;;;;;;9.63;3.03;;;6.70;99.80;;;;;;5047438;28;21184;-68
2023/12/28 05:48:47;;;;;;;8.90;2.70;;;6.60;99.90;;;;;;5047647;28;20478;-68
2023/12/28 05:51:15;;;;;;;8.50;2.80;;;6.50;99.70;;;;;;5047667;28;20440;-67
2023/12/28 05:53:45;;;;;;;11.33;4.83;;;6.40;99.90;;;;;;5047033;28;20457;-68
2023/12/28 05:56:13;;;;;;;12.20;4.53;;;6.60;99.50;;;;;;5047285;28;20475;-68
2023/12/28 05:58:41;;;;;;;9.30;3.77;;;6.60;99.90;;;;;;5047641;28;20468;-68
2023/12/28 06:01:09;;;;;;;9.57;3.53;;;6.50;99.90;;;;;;5047724;28;20573;-67
2023/12/28 06:03:37;;;;;;;11.23;4.33;;;6.50;99.90;;;;;;5047718;28;20563;-68
2023/12/28 06:06:05;;;;;;;10.20;4.00;;;6.50;99.90;;;;;;5046934;28;20448;-68
2023/12/28 06:08:33;;;;;;;9.30;4.13;;;6.50;99.90;;;;;;5047330;28;20966;-68
2023/12/28 06:11:02;;;;;;;11.00;4.57;;;6.60;99.90;;;;;;5047696;28;20448;-68
2023/12/28 06:13:30;;;;;;;10.70;3.77;;;6.70;99.90;;;;;;5047507;28;20451;-69
2023/12/28 06:15:58;;;;;;;10.20;3.70;;;6.80;99.90;;;;;;5047037;28;20511;-68
2023/12/28 06:18:26;;;;;;;9.13;3.17;;;6.80;99.90;;;;;;5047737;28;20549;-67
2023/12/28 06:20:56;;;;;;;8.40;2.90;;;6.70;99.90;;;;;;5047520;28;20555;-68
2023/12/28 06:23:26;;;;;;;8.57;2.80;;;6.90;99.90;;;;;;5047137;28;20452;-68
2023/12/28 06:25:54;;;;;;;9.00;2.97;;;6.90;99.90;;;;;;5047192;28;20470;-68
2023/12/28 06:28:26;;;;;;;9.20;2.97;;;6.90;99.90;;;;;;5046994;28;20468;-69
2023/12/28 06:30:54;;;;;;;8.10;2.93;;;7.10;99.90;;;;;;5047649;28;20960;-68
2023/12/28 06:33:22;;;;;;;10.10;2.73;;;7.10;99.90;;;;;;5047592;28;20574;-68
2023/12/28 06:35:50;;;;;;;9.40;3.20;;;7.10;99.90;;;;;;5047234;28;20910;-68
2023/12/28 06:38:18;;;;;;;9.40;3.00;;;7.10;99.90;;;;;;5046649;28;20499;-68
2023/12/28 06:40:46;;;;;;;8.73;2.80;;;7.00;99.90;;;;;;5046986;28;20546;-67
2023/12/28 06:43:14;;;;;;;8.53;2.60;;;6.90;99.90;;;;;;5046725;28;20502;-68
2023/12/28 06:45:43;;;;;;;9.83;3.70;;;7.00;99.90;;;;;;5046449;28;20490;-69
2023/12/28 06:48:11;;;;;;;9.17;2.90;;;7.00;99.90;;;;;;5046488;28;20468;-67
2023/12/28 06:50:39;;;;;;;11.40;3.00;;;6.80;99.90;;;;;;5046998;28;20458;-68
2023/12/28 06:53:08;;;;;;;8.20;2.77;;;6.90;99.90;;;;;;5046525;28;20832;-70
2023/12/28 06:55:35;;;;;;;9.40;2.23;;;6.90;99.90;;;;;;5045947;28;20534;-69
2023/12/28 06:58:06;;;;;;;8.60;2.60;;;6.90;99.90;;;;;;5046682;28;20852;-70
2023/12/28 07:00:34;;;;;;;8.37;2.27;;;6.90;99.90;;;;;;5046699;28;20522;-68
2023/12/28 07:03:04;;;;;;;8.03;2.83;;;6.90;99.90;;;;;;5046494;28;20481;-68
2023/12/28 07:05:32;;;;;;;9.13;2.90;;;7.10;99.90;;;;;;5045792;28;20473;-69
2023/12/28 07:08:00;;;;;;;8.10;2.37;;;7.00;99.90;;;;;;5045981;28;20463;-69
2023/12/28 07:10:28;;;;;;;13.03;2.93;;;7.10;99.90;;;;;;5046564;28;20531;-67
2023/12/28 07:12:56;;;;;;;8.20;2.50;;;7.20;99.90;;;;;;5043952;28;20986;-69
2023/12/28 07:15:25;;;;;;;9.00;2.43;;;7.30;99.90;;;;;;5045970;28;21282;-68
2023/12/28 07:17:53;;;;;;;9.17;2.70;;;7.40;99.90;;;;;;5046008;28;20468;-69
2023/12/28 07:20:22;;;;;;;8.97;2.70;;;7.40;99.90;;;;;;5045892;28;20960;-68
2023/12/28 07:22:50;;;;;;;8.47;2.50;;;7.40;99.90;;;;;;5046258;28;20873;-69
2023/12/28 07:25:21;;;;;;;8.50;2.70;;;7.40;99.90;;;;;;5046151;28;20467;-67
2023/12/28 07:27:49;;;;;;;7.63;2.43;;;7.40;99.90;;;;;;5046530;28;20995;-67
2023/12/28 07:30:17;;;;;;;9.10;2.60;;;7.50;99.90;;;;;;5046281;28;20449;-68
2023/12/28 07:32:46;;;;;;;8.97;3.20;;;7.50;99.90;;;;;;5046845;28;20806;-67
2023/12/28 07:35:14;;;;;;;8.87;3.10;;;7.70;99.90;;;;;;5045512;28;20504;-67
2023/12/28 07:37:44;;;;;;;8.47;3.20;;;7.70;99.90;;;;;;5045801;28;20444;-67
2023/12/28 07:40:13;;;;;;;8.23;3.37;;;7.70;99.90;;;;;;5045925;28;20445;-68
2023/12/28 07:42:41;;;;;;;9.40;2.87;;;7.70;99.90;;;;;;5045827;28;21282;-68
2023/12/28 07:45:10;;;;;;;8.20;2.70;;;7.70;99.90;;;;;;5045457;28;20547;-70
2023/12/28 07:47:38;;;;;;;7.87;2.73;;;7.70;99.90;;;;;;5045820;28;21177;-68
2023/12/28 07:50:06;;;;;;;10.97;3.10;;;7.70;99.90;;;;;;5045649;28;20453;-68
2023/12/28 07:52:35;;;;;;;8.97;2.60;;;7.70;99.90;;;;;;5045749;28;20451;-66
2023/12/28 07:55:04;;;;;;;7.77;2.67;;;7.70;99.90;;;;;;5045661;28;20896;-70
2023/12/28 07:57:34;;;;;;;8.27;2.30;;;7.70;99.90;;;;;;5046133;28;21264;-67
2023/12/28 08:00:02;;;;;;;8.50;2.50;;;7.70;99.90;;;;;;5045784;28;20444;-68
2023/12/28 08:02:30;;;;;;;8.33;2.63;;;7.70;99.90;;;;;;5045914;28;20491;-68
2023/12/28 08:04:58;;;;;;;11.10;2.70;;;7.60;99.90;;;;;;5045110;28;20539;-70
2023/12/28 08:07:26;;;;;;;10.63;3.03;;;7.70;99.90;;;;;;5045232;28;20488;-69
2023/12/28 08:09:54;;;;;;;7.63;2.27;;;7.70;99.90;;;;;;5045680;28;20470;-68
2023/12/28 08:12:24;;;;;;;7.70;2.70;;;7.70;99.90;;;;;;5044657;28;20449;-68
2023/12/28 08:14:52;;;;;;;11.10;4.20;;;7.80;99.90;;;;;;5044831;28;20463;-67
2023/12/28 08:17:20;;;;;;;10.70;4.20;;;7.80;99.90;;;;;;5038991;28;20493;-67
2023/12/28 08:19:48;;;;;;;11.50;3.00;;;7.70;99.90;;;;;;5048337;28;21210;-67
2023/12/28 08:22:16;;;;;;;11.20;3.20;;;7.70;99.90;;;;;;5048573;28;20481;-67
2023/12/28 08:24:44;;;;;;;9.20;3.27;;;7.70;99.90;;;;;;5048898;28;20523;-67
2023/12/28 08:27:12;;;;;;;8.63;2.87;;;7.70;99.90;;;;;;5049133;28;20444;-67
2023/12/28 08:29:44;;;;;;;9.03;2.13;;;7.70;99.90;;;;;;5049912;28;20492;-67
2023/12/28 08:32:14;;;;;;;8.53;2.73;;;7.70;99.90;;;;;;5049676;28;20448;-66
2023/12/28 08:34:42;;;;;;;8.67;2.83;;;7.80;99.90;;;;;;5043326;28;20447;-65
2023/12/28 08:37:11;;;;;;;9.60;3.20;;;7.80;99.90;;;;;;5046191;28;20444;-67
2023/12/28 08:39:45;;;;;;;14.63;5.57;;;7.80;99.90;;;;;;5049072;28;20461;-68
2023/12/28 08:42:16;;;;;;;12.43;5.30;;;7.60;99.90;;;;;;5049983;28;20560;-69
2023/12/28 08:44:46;;;;;;;11.50;4.47;;;7.60;99.90;;;;;;5049764;28;21177;-67
2023/12/28 08:47:16;;;;;;;11.43;5.10;;;7.70;99.90;;;;;;5050265;28;20431;-68
2023/12/28 08:49:44;;;;;;;11.90;5.10;;;7.80;99.90;;;;;;5049662;28;20481;-68
2023/12/28 08:52:12;;;;;;;10.97;4.40;;;7.80;99.90;;;;;;5049661;28;20796;-68
2023/12/28 08:54:41;;;;;;;11.30;4.67;;;7.80;99.90;;;;;;5049274;28;20943;-66
2023/12/28 08:57:10;;;;;;;10.83;4.13;;;7.80;99.90;;;;;;5049897;28;20523;-68
2023/12/28 08:59:38;;;;;;;12.23;5.17;;;7.80;99.90;;;;;;5049572;28;20472;-68
2023/12/28 09:02:07;;;;;;;9.40;3.80;;;8.00;99.90;;;;;;5049518;28;20539;-67
2023/12/28 09:04:35;;;;;;;9.27;3.50;;;8.00;99.90;;;;;;5041289;28;20448;-67
2023/12/28 09:07:03;;;;;;;9.73;2.77;;;8.10;99.90;;;;;;5049023;28;20539;-66
2023/12/28 09:09:31;;;;;;;11.30;3.43;;;8.10;99.90;;;;;;5049231;28;20468;-67
2023/12/28 09:11:59;;;;;;;9.57;3.70;;;8.20;99.90;;;;;;5049126;28;20444;-67
2023/12/28 09:14:27;;;;;;;10.10;3.27;;;8.20;99.90;;;;;;5048104;28;20526;-68
2023/12/28 09:16:55;;;;;;;8.90;3.30;;;8.20;99.90;;;;;;5048466;28;20449;-68
2023/12/28 09:19:24;;;;;;;12.80;3.53;;;8.20;99.90;;;;;;5048179;28;20502;-67
2023/12/28 09:21:52;;;;;;;9.77;3.83;;;8.20;99.90;;;;;;5047823;28;20534;-68
2023/12/28 09:24:20;;;;;;;11.27;4.17;;;8.30;99.90;;;;;;5047925;28;20492;-68
2023/12/28 09:26:48;;;;;;;11.07;3.20;;;8.20;99.90;;;;;;5047939;28;20447;-68
2023/12/28 09:29:16;;;;;;;11.77;3.30;;;8.00;99.90;;;;;;5046596;28;20470;-66
2023/12/28 09:31:44;;;;;;;11.93;3.87;;;7.90;99.90;;;;;;5048339;28;20454;-67
2023/12/28 09:34:12;;;;;;;9.80;4.37;;;7.80;99.90;;;;;;5046715;28;20549;-67
2023/12/28 09:36:41;;;;;;;11.23;3.60;;;7.90;99.90;;;;;;5047138;28;20647;-67
2023/12/28 09:39:09;;;;;;;9.97;3.60;;;8.00;99.90;;;;;;5048582;28;20573;-67
2023/12/28 09:41:43;;;;;;;9.00;3.53;;;8.10;99.90;;;;;;5043102;28;20454;-69
2023/12/28 09:44:13;;;;;;;13.60;3.60;;;8.20;99.90;;;;;;5040930;28;20560;-67
2023/12/28 09:46:43;;;;;;;10.57;3.90;;;8.40;99.90;;;;;;5040731;28;20952;-67
2023/12/28 09:49:12;;;;;;;9.87;3.60;;;8.50;99.90;;;;;;5046680;28;20537;-66
2023/12/28 09:51:41;;;;;;;10.50;4.17;;;8.50;99.90;;;;;;5040216;28;20511;-67
2023/12/28 09:54:09;;;;;;;12.07;3.50;;;8.70;99.90;;;;;;5043198;28;20445;-71
2023/12/28 09:56:38;;;;;;;10.57;3.80;;;8.70;99.90;;;;;;5043712;28;20442;-69
2023/12/28 09:59:07;;;;;;;10.10;3.47;;;8.80;99.90;;;;;;5045393;28;20460;-68
2023/12/28 10:01:35;;;;;;;10.53;3.67;;;9.00;99.90;;;;;;5038868;28;21075;-70
2023/12/28 10:04:04;;;;;;;11.77;3.57;;;9.00;99.90;;;;;;5046517;28;20517;-68
2023/12/28 10:06:32;;;;;;;9.20;3.73;;;9.10;99.90;;;;;;5046362;28;20450;-68
2023/12/28 10:09:01;;;;;;;9.20;3.83;;;9.30;99.90;;;;;;5041322;28;20554;-68
2023/12/28 10:11:30;;;;;;;9.67;3.80;;;9.40;99.90;;;;;;5043617;28;20513;-69
2023/12/28 10:13:59;;;;;;;9.30;4.20;;;9.40;99.90;;;;;;5045586;28;20860;-68
2023/12/28 10:16:27;;;;;;;12.80;3.90;;;9.40;99.90;;;;;;5044240;28;20447;-67
2023/12/28 10:18:57;;;;;;;11.03;3.77;;;9.30;99.90;;;;;;5045683;28;20478;-67
2023/12/28 10:21:25;;;;;;;11.03;4.00;;;9.30;99.90;;;;;;5044835;28;20476;-68
2023/12/28 10:23:54;;;;;;;11.70;4.13;;;9.30;99.90;;;;;;5045705;28;20480;-67
2023/12/28 10:26:23;;;;;;;10.73;4.20;;;9.30;99.90;;;;;;5039816;28;20441;-67
2023/12/28 10:28:51;;;;;;;10.73;4.73;;;9.40;99.90;;;;;;5040549;28;20456;-67
2023/12/28 10:31:19;;;;;;;10.97;4.60;;;9.30;99.90;;;;;;5042021;28;20543;-67
2023/12/28 10:33:48;;;;;;;10.83;4.37;;;9.30;99.90;;;;;;5041142;28;20515;-66
2023/12/28 10:36:18;;;;;;;11.20;4.97;;;9.20;99.90;;;;;;5044685;28;20443;-68
2023/12/28 10:38:52;;;;;;;9.97;4.43;;;9.10;99.90;;;;;;5045851;28;20464;-67
2023/12/28 10:41:21;;;;;;;10.57;4.70;;;9.10;99.90;;;;;;5042326;28;20451;-69
2023/12/28 10:44:03;;;;;;;14.70;6.37;;;9.10;99.90;;;;;;5046257;28;20512;-67
2023/12/28 10:46:40;;;;;;;11.50;6.00;;;9.00;99.90;;;;;;5035876;28;20440;-68
2023/12/28 10:49:12;;;;;;;13.73;5.00;;;8.90;99.90;;;;;;5033173;28;20463;-67
2023/12/28 10:51:43;;;;;;;13.70;4.83;;;8.80;99.90;;;;;;5037512;28;20454;-70
2023/12/28 10:54:24;;;;;;;12.57;5.60;;;8.80;99.90;;;;;;5040552;28;20451;-69
2023/12/28 10:57:01;;;;;;;14.90;5.77;;;8.80;99.90;;;;;;5040391;28;20455;-70
2023/12/28 10:59:41;;;;;;;11.40;5.60;;;8.90;99.90;;;;;;5040374;28;20805;-68
2023/12/28 11:02:12;;;;;;;15.03;5.40;;;8.80;99.90;;;;;;5040065;28;20450;-69
2023/12/28 11:04:43;;;;;;;11.43;5.30;;;8.90;99.90;;;;;;5039095;28;20559;-71
2023/12/28 11:07:14;;;;;;;13.83;6.20;;;8.90;99.90;;;;;;5039591;28;20451;-72
2023/12/28 11:09:43;;;;;;;11.70;4.33;;;9.00;99.90;;;;;;5040453;28;20538;-70
2023/12/28 11:12:11;;;;;;;10.50;4.37;;;9.00;99.90;;;;;;5042297;28;20470;-72
2023/12/28 11:14:42;;;;;;;12.23;4.90;;;9.10;99.90;;;;;;5040398;28;20451;-71
2023/12/28 11:17:14;;;;;;;12.07;4.90;;;9.20;99.90;;;;;;5040147;28;20556;-73
2023/12/28 11:19:43;;;;;;;11.50;4.30;;;9.30;99.90;;;;;;5041702;28;20455;-69
2023/12/28 11:22:13;;;;;;;9.87;4.07;;;9.40;99.90;;;;;;5039959;28;20452;-71
2023/12/28 11:24:41;;;;;;;10.57;4.17;;;9.50;99.90;;;;;;5042430;28;20507;-71
2023/12/28 11:27:10;;;;;;;11.93;3.97;;;9.50;99.90;;;;;;5041152;28;20558;-73
2023/12/28 11:29:38;;;;;;;11.07;4.20;;;9.50;99.90;;;;;;5036227;28;20535;-71
2023/12/28 11:32:09;;;;;;;10.20;4.33;;;9.70;99.90;;;;;;5041136;28;20436;-72
2023/12/28 11:34:38;;;;;;;9.93;4.00;;;9.70;99.90;;;;;;5038538;28;20438;-71
2023/12/28 11:37:09;;;;;;;11.03;4.17;;;9.70;99.90;;;;;;5037548;28;20449;-69
2023/12/28 11:39:38;;;;;;;10.00;4.23;;;9.80;99.90;;;;;;5040142;28;20472;-69
2023/12/28 11:42:08;;;;;;;11.33;4.20;;;9.70;99.90;;;;;;5049300;28;20511;-69
2023/12/28 11:44:40;;;;;;;10.83;4.53;;;9.60;99.90;;;;;;5048970;28;20520;-70
2023/12/28 11:47:16;;;;;;;11.33;5.33;;;9.60;99.90;;;;;;5036596;28;20446;-71
2023/12/28 11:49:45;;;;;;;12.77;4.77;;;9.70;99.90;;;;;;5041524;28;20466;-73
2023/12/28 11:52:24;;;;;;;11.90;6.07;;;9.70;99.90;;;;;;5039608;28;20464;-71
2023/12/28 11:54:52;;;;;;;12.13;4.90;;;9.60;99.90;;;;;;5036470;28;20441;-74
2023/12/28 11:57:20;;;;;;;12.60;4.90;;;9.50;99.90;;;;;;5041585;28;20838;-72
2023/12/28 11:59:53;;;;;;;12.20;5.23;;;9.60;99.90;;;;;;5042014;28;20495;-72
2023/12/28 12:02:23;;;;;;;10.27;4.30;;;9.60;99.90;;;;;;5042090;28;20942;-71
2023/12/28 12:04:52;;;;;;;10.30;4.77;;;9.60;99.90;;;;;;5042382;28;20476;-70
2023/12/28 12:07:22;;;;;;;11.17;4.83;;;9.70;99.90;;;;;;5042745;28;20437;-73
2023/12/28 12:09:55;;;;;;;11.70;5.00;;;9.70;99.90;;;;;;5041203;28;20460;-70
2023/12/28 12:12:23;;;;;;;12.67;4.77;;;9.80;99.90;;;;;;5043013;28;20453;-69
2023/12/28 12:14:51;;;;;;;11.80;4.43;;;9.90;99.90;;;;;;5038075;28;20562;-70
2023/12/28 12:17:20;;;;;;;10.27;4.83;;;10.00;99.90;;;;;;5045111;28;21041;-72
2023/12/28 12:19:50;;;;;;;10.63;4.33;;;10.10;99.90;;;;;;5038645;28;20563;-70
2023/12/28 12:22:19;;;;;;;11.27;5.30;;;10.30;99.90;;;;;;5039654;28;21041;-70
2023/12/28 12:24:49;;;;;;;10.40;4.90;;;10.30;99.90;;;;;;5038029;28;20579;-71
2023/12/28 12:27:18;;;;;;;12.13;4.60;;;10.40;99.90;;;;;;5035286;28;20533;-70
2023/12/28 12:29:46;;;;;;;12.37;4.50;;;10.40;99.90;;;;;;5041660;28;20567;-71
2023/12/28 12:32:14;;;;;;;10.70;4.30;;;10.50;99.90;;;;;;5044905;28;20450;-72
2023/12/28 12:34:43;;;;;;;9.87;4.90;;;10.50;99.90;;;;;;5037241;28;20449;-72
2023/12/28 12:37:12;;;;;;;14.00;6.30;;;10.60;99.90;;;;;;5043708;28;20432;-72
2023/12/28 12:39:40;;;;;;;9.67;4.57;;;10.50;99.90;;;;;;5038603;28;20494;-71
2023/12/28 12:42:13;;;;;;;11.10;5.60;;;10.30;99.90;;;;;;5056013;28;20536;-69
2023/12/28 12:44:41;;;;;;;12.63;5.90;;;10.20;99.90;;;;;;5036836;28;20518;-73
2023/12/28 12:47:09;;;;;;;12.03;5.50;;;10.20;99.90;;;;;;5041171;28;20447;-72
2023/12/28 12:49:38;;;;;;;12.50;5.53;;;10.00;99.90;;;;;;5048305;28;20942;-69
2023/12/28 12:52:08;;;;;;;12.10;5.20;;;9.90;99.90;;;;;;5054409;28;20445;-69
2023/12/28 12:54:38;;;;;;;12.53;5.00;;;9.80;99.90;;;;;;5045276;28;20514;-68
2023/12/28 12:57:06;;;;;;;11.60;5.47;;;9.80;99.90;;;;;;5050037;28;20475;-66
2023/12/28 12:59:34;;;;;;;10.67;5.23;;;9.90;99.90;;;;;;5056910;28;20472;-67
2023/12/28 13:02:03;;;;;;;12.50;6.03;;;10.00;99.90;;;;;;5043312;28;20529;-68